Time;durP1;ratioP1;P1;durP2;ratioP2;P2;SDS_P1;SDS_P2;PMS_P1;PMS_P2;Temp;Humidity;BMP_temperature;BMP_pressure;BME280_temperature;BME280_humidity;BME280_pressure;Samples;Min_cycle;Max_cycle;Signal;HPM_P1;HPM_P2
2023/02/06 00:01:14;;;;;;;15.10;10.10;;;-0.30;99.90;;;;;;5061517;28;20534;-68
2023/02/06 00:03:41;;;;;;;16.17;11.10;;;-0.40;99.90;;;;;;5061405;28;20539;-68
2023/02/06 00:06:08;;;;;;;18.17;9.77;;;-0.40;99.90;;;;;;5061422;28;20580;-70
2023/02/06 00:08:35;;;;;;;16.20;11.43;;;-0.50;99.90;;;;;;5062151;28;20457;-69
2023/02/06 00:11:06;;;;;;;15.17;10.33;;;-0.50;99.90;;;;;;5061874;28;20851;-68
2023/02/06 00:13:35;;;;;;;15.00;10.03;;;-0.50;99.90;;;;;;5062433;28;20470;-69
2023/02/06 00:16:02;;;;;;;11.60;8.47;;;-0.50;99.90;;;;;;5061585;28;20847;-68
2023/02/06 00:18:30;;;;;;;15.67;8.47;;;-0.50;99.90;;;;;;5060178;28;20478;-68
2023/02/06 00:20:56;;;;;;;13.27;8.57;;;-0.50;99.90;;;;;;5059922;28;20486;-68
2023/02/06 00:23:23;;;;;;;12.00;7.17;;;-0.50;99.90;;;;;;5060497;28;20534;-68
2023/02/06 00:25:50;;;;;;;11.50;7.93;;;-0.50;99.90;;;;;;5060142;28;20528;-69
2023/02/06 00:28:17;;;;;;;9.03;6.67;;;-0.50;99.90;;;;;;5060179;28;20447;-69
2023/02/06 00:30:47;;;;;;;11.33;7.80;;;-0.60;99.90;;;;;;5060430;28;20459;-68
2023/02/06 00:33:14;;;;;;;11.67;7.87;;;-0.60;99.90;;;;;;5060271;28;20764;-68
2023/02/06 00:35:41;;;;;;;11.70;7.50;;;-0.60;99.90;;;;;;5060434;28;20447;-69
2023/02/06 00:38:09;;;;;;;8.87;6.77;;;-0.60;99.90;;;;;;5060691;28;20494;-69
2023/02/06 00:40:36;;;;;;;8.00;6.70;;;-0.60;99.90;;;;;;5061075;28;20455;-69
2023/02/06 00:43:03;;;;;;;11.80;7.90;;;-0.60;99.90;;;;;;5059685;28;20493;-69
2023/02/06 00:45:30;;;;;;;11.63;7.93;;;-0.60;99.90;;;;;;5060080;28;20454;-67
2023/02/06 00:47:58;;;;;;;11.10;6.53;;;-0.70;99.90;;;;;;5060391;28;20530;-69
2023/02/06 00:50:25;;;;;;;17.00;9.00;;;-0.70;99.90;;;;;;5060373;28;20489;-68
2023/02/06 00:52:52;;;;;;;15.63;8.67;;;-0.60;99.90;;;;;;5059634;28;20549;-68
2023/02/06 00:55:19;;;;;;;10.20;7.57;;;-0.60;99.90;;;;;;5059215;28;20849;-68
2023/02/06 00:57:46;;;;;;;11.50;8.33;;;-0.70;99.90;;;;;;5059756;28;20519;-67
2023/02/06 01:00:14;;;;;;;14.30;8.30;;;-0.70;99.90;;;;;;5059336;28;20451;-69
2023/02/06 01:02:41;;;;;;;15.00;8.40;;;-0.70;99.90;;;;;;5060072;28;20538;-68
2023/02/06 01:05:09;;;;;;;13.63;8.40;;;-0.70;99.90;;;;;;5059333;28;20459;-68
2023/02/06 01:07:38;;;;;;;10.33;6.67;;;-0.70;99.90;;;;;;5060058;28;20461;-68
2023/02/06 01:10:07;;;;;;;14.70;8.57;;;-0.70;99.90;;;;;;5059536;28;20458;-68
2023/02/06 01:12:35;;;;;;;15.47;9.87;;;-0.80;99.90;;;;;;5059583;28;20537;-68
2023/02/06 01:15:02;;;;;;;12.77;8.70;;;-0.70;99.90;;;;;;5059535;28;20491;-68
2023/02/06 01:17:30;;;;;;;12.70;8.13;;;-0.70;99.90;;;;;;5058719;28;20461;-68
2023/02/06 01:19:57;;;;;;;12.30;9.23;;;-0.70;99.90;;;;;;5057883;28;20493;-69
2023/02/06 01:22:26;;;;;;;12.73;9.10;;;-0.70;99.90;;;;;;5060066;28;20854;-68
2023/02/06 01:24:52;;;;;;;9.87;8.00;;;-0.70;99.90;;;;;;5059662;28;20542;-68
2023/02/06 01:27:19;;;;;;;14.47;8.83;;;-0.70;99.90;;;;;;5060415;28;20837;-68
2023/02/06 01:29:46;;;;;;;13.10;8.93;;;-0.70;99.90;;;;;;5059875;28;20490;-67
2023/02/06 01:32:13;;;;;;;12.50;9.50;;;-0.70;99.90;;;;;;5060484;28;20927;-69
2023/02/06 01:34:40;;;;;;;14.03;8.77;;;-0.70;99.90;;;;;;5060577;28;20852;-68
2023/02/06 01:37:07;;;;;;;13.40;8.47;;;-0.70;99.90;;;;;;5059633;28;20530;-69
2023/02/06 01:39:35;;;;;;;9.33;7.97;;;-0.80;99.90;;;;;;5060538;28;20616;-68
2023/02/06 01:42:03;;;;;;;13.03;8.23;;;-0.80;99.90;;;;;;5059985;28;20470;-70
2023/02/06 01:44:33;;;;;;;10.93;8.33;;;-0.80;99.90;;;;;;5058919;28;20569;-67
2023/02/06 01:47:00;;;;;;;12.73;7.60;;;-0.80;99.90;;;;;;5059209;28;20465;-68
2023/02/06 01:49:31;;;;;;;12.40;7.80;;;-0.80;99.90;;;;;;5058690;28;20518;-69
2023/02/06 01:52:03;;;;;;;12.67;8.47;;;-0.80;99.90;;;;;;5058583;28;20565;-67
2023/02/06 01:54:31;;;;;;;11.50;8.60;;;-0.80;99.90;;;;;;5057331;28;20524;-69
2023/02/06 01:57:02;;;;;;;13.10;9.23;;;-0.90;99.90;;;;;;5056462;28;20847;-68
2023/02/06 01:59:30;;;;;;;12.03;9.07;;;-0.90;99.90;;;;;;5056726;28;20970;-68
2023/02/06 02:01:57;;;;;;;10.33;8.50;;;-1.00;99.90;;;;;;5057272;28;20842;-69
2023/02/06 02:04:28;;;;;;;13.17;7.87;;;-0.90;99.90;;;;;;5057528;28;20546;-69
2023/02/06 02:07:01;;;;;;;13.37;8.33;;;-0.90;99.90;;;;;;5056881;28;20453;-68
2023/02/06 02:09:29;;;;;;;11.30;8.13;;;-0.90;99.90;;;;;;5057145;28;20437;-68
2023/02/06 02:11:56;;;;;;;10.90;8.53;;;-1.00;99.90;;;;;;5057570;28;20469;-68
2023/02/06 02:14:24;;;;;;;11.80;8.13;;;-1.00;99.90;;;;;;5057123;28;20465;-69
2023/02/06 02:17:00;;;;;;;12.10;8.73;;;-1.00;99.90;;;;;;5056932;28;20459;-67
2023/02/06 02:19:57;;;;;;;15.33;9.07;;;-1.00;99.90;;;;;;5056735;28;20463;-68
2023/02/06 02:23:04;;;;;;;11.63;8.10;;;-1.00;99.90;;;;;;5056870;28;20550;-69
2023/02/06 02:26:13;;;;;;;11.70;8.33;;;-1.00;99.90;;;;;;5056355;28;20528;-68
2023/02/06 02:29:12;;;;;;;10.23;8.17;;;-1.10;99.90;;;;;;5020321;28;20454;-68
2023/02/06 02:32:25;;;;;;;11.60;7.13;;;-1.10;99.90;;;;;;5055391;28;20550;-69
2023/02/06 02:35:17;;;;;;;10.40;7.63;;;-1.10;99.90;;;;;;5056854;28;20538;-70
2023/02/06 02:37:52;;;;;;;11.27;8.20;;;-1.10;99.90;;;;;;5056578;28;20538;-70
2023/02/06 02:40:28;;;;;;;12.43;7.70;;;-1.00;99.90;;;;;;5056907;28;20471;-69
2023/02/06 02:43:05;;;;;;;12.93;8.70;;;-1.00;99.90;;;;;;5018618;28;1100795;-68
2023/02/06 02:45:38;;;;;;;12.77;7.30;;;-0.90;99.90;;;;;;5058009;28;20533;-69
2023/02/06 02:48:10;;;;;;;16.73;7.90;;;-0.90;99.90;;;;;;5058443;28;20470;-69
2023/02/06 02:50:40;;;;;;;9.73;7.10;;;-0.80;99.90;;;;;;5058111;28;20840;-69
2023/02/06 02:53:08;;;;;;;11.63;7.17;;;-0.80;99.90;;;;;;5058043;28;20791;-68
2023/02/06 02:55:35;;;;;;;11.77;7.23;;;-0.70;99.90;;;;;;5058036;28;20537;-69
2023/02/06 02:58:06;;;;;;;9.87;7.37;;;-0.70;99.90;;;;;;5057825;28;20455;-69
2023/02/06 03:00:39;;;;;;;14.07;8.30;;;-0.60;99.90;;;;;;5057411;28;20468;-69
2023/02/06 03:03:09;;;;;;;11.77;7.60;;;-0.60;99.90;;;;;;5056648;28;20453;-68
2023/02/06 03:05:46;;;;;;;11.67;8.23;;;-0.60;99.90;;;;;;5056610;28;20450;-68
2023/02/06 03:08:22;;;;;;;9.20;6.80;;;-0.60;99.90;;;;;;5056625;28;20486;-69
2023/02/06 03:10:58;;;;;;;10.20;7.10;;;-0.60;99.90;;;;;;5056847;28;20442;-68
2023/02/06 03:13:30;;;;;;;10.37;7.10;;;-0.50;99.90;;;;;;5061277;28;20443;-69
2023/02/06 03:16:03;;;;;;;11.27;7.93;;;-0.50;99.90;;;;;;5061080;28;20546;-69
2023/02/06 03:18:35;;;;;;;9.90;7.73;;;-0.40;99.90;;;;;;5058895;28;20546;-67
2023/02/06 03:21:06;;;;;;;9.93;8.40;;;-0.30;99.90;;;;;;5058519;28;20443;-69
2023/02/06 03:23:37;;;;;;;11.27;8.10;;;-0.30;99.90;;;;;;5056489;28;20447;-69
2023/02/06 03:26:07;;;;;;;10.10;7.60;;;-0.30;99.90;;;;;;5057205;28;20439;-68
2023/02/06 03:28:38;;;;;;;11.43;7.80;;;-0.30;99.90;;;;;;5057290;28;20538;-69
2023/02/06 03:31:09;;;;;;;11.63;7.80;;;-0.30;99.90;;;;;;5057268;28;20787;-69
2023/02/06 03:33:42;;;;;;;14.67;8.80;;;-0.30;99.90;;;;;;5058447;28;20530;-69
2023/02/06 03:36:15;;;;;;;12.20;8.23;;;-0.30;99.90;;;;;;5058017;28;20979;-69
2023/02/06 03:38:43;;;;;;;13.00;7.17;;;-0.30;99.90;;;;;;5057261;28;20531;-69
2023/02/06 03:41:11;;;;;;;10.80;7.30;;;-0.30;99.90;;;;;;5058123;28;20465;-68
2023/02/06 03:43:38;;;;;;;10.50;6.93;;;-0.30;99.90;;;;;;5061510;28;20864;-67
2023/02/06 03:46:11;;;;;;;9.70;7.40;;;-0.30;99.90;;;;;;5062145;28;20462;-69
2023/02/06 03:48:41;;;;;;;12.97;8.03;;;-0.30;99.90;;;;;;5061737;28;20761;-68
2023/02/06 03:51:13;;;;;;;10.30;8.63;;;-0.30;99.90;;;;;;5061691;28;20542;-69
2023/02/06 03:53:42;;;;;;;8.63;6.80;;;-0.20;99.90;;;;;;5061599;28;20535;-68
2023/02/06 03:56:12;;;;;;;9.23;6.80;;;-0.20;99.90;;;;;;5060835;28;20541;-68
2023/02/06 03:58:39;;;;;;;10.50;7.73;;;-0.20;99.90;;;;;;5059934;28;20862;-69
2023/02/06 04:01:07;;;;;;;10.90;7.33;;;-0.20;99.90;;;;;;5060895;28;20520;-69
2023/02/06 04:03:34;;;;;;;9.20;7.33;;;-0.20;99.90;;;;;;5061214;28;20843;-67
2023/02/06 04:06:01;;;;;;;8.17;6.50;;;-0.20;99.90;;;;;;5060591;28;20526;-67
2023/02/06 04:08:29;;;;;;;10.40;6.70;;;-0.20;99.90;;;;;;5059791;28;20469;-68
2023/02/06 04:10:56;;;;;;;7.43;6.53;;;-0.10;99.90;;;;;;5058991;28;20463;-69
2023/02/06 04:13:23;;;;;;;9.50;5.70;;;-0.10;99.90;;;;;;5059524;28;20470;-69
2023/02/06 04:15:50;;;;;;;9.20;6.53;;;-0.10;99.90;;;;;;5060092;28;20459;-68
2023/02/06 04:18:17;;;;;;;9.13;7.03;;;-0.10;99.90;;;;;;5060032;28;20466;-69
2023/02/06 04:20:44;;;;;;;9.00;7.20;;;0.00;99.90;;;;;;5059850;28;20483;-68
2023/02/06 04:23:11;;;;;;;12.77;7.00;;;0.00;99.90;;;;;;5059810;28;20501;-69
2023/02/06 04:25:39;;;;;;;13.53;7.70;;;0.00;99.90;;;;;;5059806;28;20459;-68
2023/02/06 04:28:06;;;;;;;7.73;6.40;;;0.00;99.90;;;;;;5060120;28;20554;-69
2023/02/06 04:30:32;;;;;;;9.30;7.33;;;0.00;99.90;;;;;;5060047;28;20786;-68
2023/02/06 04:32:59;;;;;;;9.60;6.10;;;0.10;99.90;;;;;;5059551;28;20950;-69
2023/02/06 04:35:26;;;;;;;9.77;6.30;;;0.10;99.90;;;;;;5059463;28;20541;-68
2023/02/06 04:37:53;;;;;;;8.60;6.57;;;0.00;99.90;;;;;;5060527;28;20455;-68
2023/02/06 04:40:20;;;;;;;8.43;6.30;;;0.00;99.90;;;;;;5060538;28;20479;-68
2023/02/06 04:42:48;;;;;;;9.30;6.10;;;0.00;99.90;;;;;;5060440;28;20458;-69
2023/02/06 04:45:15;;;;;;;7.33;6.03;;;0.00;99.90;;;;;;5060039;28;20869;-68
2023/02/06 04:47:42;;;;;;;6.67;5.97;;;-0.10;99.90;;;;;;5061448;28;20539;-69
2023/02/06 04:50:10;;;;;;;9.30;5.43;;;-0.10;99.90;;;;;;5061532;28;20828;-67
2023/02/06 04:52:37;;;;;;;7.70;6.47;;;-0.10;99.90;;;;;;5060703;28;20466;-67
2023/02/06 04:55:04;;;;;;;8.50;6.20;;;-0.10;99.90;;;;;;5061345;28;20541;-67
2023/02/06 04:57:30;;;;;;;10.50;6.53;;;-0.10;99.90;;;;;;5061212;28;20451;-68
2023/02/06 04:59:59;;;;;;;9.37;6.50;;;-0.10;99.90;;;;;;5060985;28;20871;-68
2023/02/06 05:02:26;;;;;;;7.27;6.00;;;-0.20;99.90;;;;;;5060281;28;20546;-69
2023/02/06 05:04:53;;;;;;;8.87;7.10;;;-0.20;99.90;;;;;;5059385;28;20483;-68
2023/02/06 05:07:20;;;;;;;14.20;7.40;;;-0.20;99.90;;;;;;5059211;28;20459;-68
2023/02/06 05:09:46;;;;;;;7.97;6.83;;;-0.30;99.90;;;;;;5059159;28;20888;-68
2023/02/06 05:12:13;;;;;;;15.43;7.30;;;-0.30;99.90;;;;;;5058975;28;20459;-68
2023/02/06 05:14:40;;;;;;;10.77;6.90;;;-0.30;99.90;;;;;;5059188;28;20469;-68
2023/02/06 05:17:08;;;;;;;10.40;6.97;;;-0.30;99.90;;;;;;5059251;28;20459;-68
2023/02/06 05:19:35;;;;;;;10.63;7.70;;;-0.30;99.90;;;;;;5058424;28;20479;-69
2023/02/06 05:22:02;;;;;;;9.23;7.77;;;-0.40;99.90;;;;;;5058435;28;20455;-68
2023/02/06 05:24:29;;;;;;;9.37;8.23;;;-0.40;99.90;;;;;;5058735;28;20491;-67
2023/02/06 05:26:57;;;;;;;10.33;8.27;;;-0.40;99.90;;;;;;5058275;28;20507;-68
2023/02/06 05:29:24;;;;;;;8.93;7.23;;;-0.40;99.90;;;;;;5059321;28;20499;-69
2023/02/06 05:31:51;;;;;;;17.07;8.40;;;-0.40;99.90;;;;;;5059714;28;20470;-68
2023/02/06 05:34:20;;;;;;;9.40;7.90;;;-0.30;99.90;;;;;;5059632;28;20527;-67
2023/02/06 05:36:46;;;;;;;13.43;8.17;;;-0.30;99.90;;;;;;5059705;28;20470;-68
2023/02/06 05:39:13;;;;;;;13.67;8.77;;;-0.30;99.90;;;;;;5059477;28;20892;-68
2023/02/06 05:41:40;;;;;;;11.73;9.83;;;-0.40;99.90;;;;;;5059347;28;20455;-69
2023/02/06 05:44:09;;;;;;;16.00;8.67;;;-0.30;99.90;;;;;;5059098;28;20497;-67
2023/02/06 05:46:36;;;;;;;11.80;9.90;;;-0.40;99.90;;;;;;5059620;28;20459;-68
2023/02/06 05:49:03;;;;;;;16.10;9.50;;;-0.40;99.90;;;;;;5059484;28;20645;-68
2023/02/06 05:51:32;;;;;;;14.40;10.10;;;-0.40;99.90;;;;;;5059739;28;20451;-67
2023/02/06 05:53:58;;;;;;;14.33;9.60;;;-0.30;99.90;;;;;;5059944;28;20547;-68
2023/02/06 05:56:25;;;;;;;14.07;9.20;;;-0.30;99.90;;;;;;5059572;28;20491;-68
2023/02/06 05:58:52;;;;;;;13.27;9.83;;;-0.20;99.90;;;;;;5058320;28;20465;-69
2023/02/06 06:01:19;;;;;;;12.20;10.17;;;-0.20;99.90;;;;;;5059757;28;20562;-68
2023/02/06 06:03:46;;;;;;;14.40;9.50;;;-0.10;99.90;;;;;;5057888;28;20550;-68
2023/02/06 06:06:13;;;;;;;12.63;10.00;;;-0.10;99.90;;;;;;5058936;28;20482;-68
2023/02/06 06:08:41;;;;;;;13.83;10.90;;;-0.10;99.90;;;;;;5059875;28;20541;-68
2023/02/06 06:11:08;;;;;;;12.33;10.07;;;-0.10;99.90;;;;;;5060210;28;20848;-68
2023/02/06 06:13:35;;;;;;;15.87;11.50;;;-0.10;99.90;;;;;;5061381;28;20487;-68
2023/02/06 06:16:01;;;;;;;17.43;11.00;;;-0.10;99.90;;;;;;5061036;28;20485;-69
2023/02/06 06:18:28;;;;;;;14.63;11.50;;;-0.10;99.90;;;;;;5060191;28;20455;-69
2023/02/06 06:20:55;;;;;;;15.47;11.27;;;-0.10;99.90;;;;;;5058880;28;20566;-68
2023/02/06 06:23:22;;;;;;;14.77;10.90;;;0.00;99.90;;;;;;5059817;28;20519;-69
2023/02/06 06:25:50;;;;;;;14.63;10.60;;;0.00;99.90;;;;;;5059821;28;20538;-68
2023/02/06 06:28:17;;;;;;;16.57;11.80;;;0.00;99.90;;;;;;5059167;28;20459;-69
2023/02/06 06:30:44;;;;;;;17.70;11.83;;;0.00;99.90;;;;;;5058859;28;20451;-68
2023/02/06 06:33:13;;;;;;;19.70;13.40;;;0.00;99.90;;;;;;5058391;28;20455;-69
2023/02/06 06:35:39;;;;;;;17.43;13.57;;;-0.10;99.90;;;;;;5058065;28;20465;-69
2023/02/06 06:38:06;;;;;;;13.83;10.80;;;-0.10;99.90;;;;;;5060685;28;20546;-69
2023/02/06 06:40:33;;;;;;;15.70;11.20;;;-0.10;99.90;;;;;;5060432;28;20486;-69
2023/02/06 06:43:01;;;;;;;15.00;12.20;;;-0.10;99.90;;;;;;5059724;28;20534;-68
2023/02/06 06:45:28;;;;;;;14.67;12.50;;;-0.10;99.90;;;;;;5059383;28;20443;-69
2023/02/06 06:47:55;;;;;;;15.20;11.57;;;-0.10;99.90;;;;;;5059095;28;20546;-67
2023/02/06 06:50:22;;;;;;;15.00;12.30;;;-0.10;99.90;;;;;;5059382;28;20507;-69
2023/02/06 06:52:49;;;;;;;16.03;12.10;;;-0.10;99.90;;;;;;5058527;28;20491;-69
2023/02/06 06:55:17;;;;;;;18.00;11.77;;;-0.10;99.90;;;;;;5058940;28;20498;-68
2023/02/06 06:57:44;;;;;;;20.40;12.93;;;-0.10;99.90;;;;;;5058337;28;20454;-69
2023/02/06 07:00:14;;;;;;;19.27;13.00;;;-0.10;99.90;;;;;;5058135;28;20558;-68
2023/02/06 07:02:41;;;;;;;17.20;12.00;;;-0.10;99.90;;;;;;5058534;28;20519;-68
2023/02/06 07:05:09;;;;;;;20.30;12.50;;;-0.10;99.90;;;;;;5058349;28;20550;-68
2023/02/06 07:07:37;;;;;;;17.00;12.63;;;-0.10;99.90;;;;;;5058331;28;20550;-69
2023/02/06 07:10:05;;;;;;;15.27;12.57;;;-0.10;99.90;;;;;;5057412;28;20455;-67
2023/02/06 07:12:32;;;;;;;17.60;12.97;;;-0.10;99.90;;;;;;5056859;28;20466;-68
2023/02/06 07:15:03;;;;;;;15.93;11.63;;;-0.10;99.90;;;;;;5059109;28;20482;-68
2023/02/06 07:17:31;;;;;;;19.87;13.30;;;-0.10;99.90;;;;;;5061885;28;20443;-68
2023/02/06 07:19:58;;;;;;;14.10;12.10;;;0.00;99.90;;;;;;5063584;28;20459;-69
2023/02/06 07:22:25;;;;;;;17.70;12.67;;;0.00;99.90;;;;;;5063503;28;20486;-68
2023/02/06 07:24:52;;;;;;;18.63;14.27;;;0.00;99.90;;;;;;5076693;28;20521;-68
2023/02/06 07:27:19;;;;;;;25.63;14.80;;;0.00;99.90;;;;;;5082026;28;20460;-69
2023/02/06 07:29:46;;;;;;;19.00;12.77;;;0.00;99.90;;;;;;5078296;28;20450;-68
2023/02/06 07:32:13;;;;;;;22.73;14.70;;;0.00;99.90;;;;;;5078340;28;20549;-68
2023/02/06 07:34:41;;;;;;;18.83;14.17;;;0.10;99.90;;;;;;5079123;28;20757;-69
2023/02/06 07:37:08;;;;;;;18.30;14.10;;;0.10;99.90;;;;;;5078199;28;20454;-69
2023/02/06 07:39:35;;;;;;;19.97;14.60;;;0.20;99.90;;;;;;5078133;28;20478;-69
2023/02/06 07:42:02;;;;;;;19.13;15.10;;;0.10;99.90;;;;;;5078452;28;20492;-69
2023/02/06 07:44:28;;;;;;;17.30;13.10;;;0.20;99.90;;;;;;5077665;28;20602;-69
2023/02/06 07:46:56;;;;;;;21.20;14.10;;;0.20;99.90;;;;;;5078165;28;20454;-69
2023/02/06 07:49:23;;;;;;;18.33;13.40;;;0.20;99.90;;;;;;5078310;28;20496;-68
2023/02/06 07:51:51;;;;;;;20.30;14.70;;;0.20;99.90;;;;;;5078330;28;20918;-69
2023/02/06 07:54:18;;;;;;;19.87;13.93;;;0.30;99.90;;;;;;5078544;28;20462;-68
2023/02/06 07:56:45;;;;;;;20.70;13.70;;;0.30;99.90;;;;;;5078611;28;20462;-68
2023/02/06 07:59:12;;;;;;;27.77;14.60;;;0.20;99.90;;;;;;5079496;28;20454;-68
2023/02/06 08:01:38;;;;;;;23.00;13.87;;;0.30;99.90;;;;;;5079510;28;20482;-67
2023/02/06 08:04:05;;;;;;;19.13;13.90;;;0.30;99.90;;;;;;5079538;28;20564;-69
2023/02/06 08:06:32;;;;;;;20.60;15.80;;;0.30;99.90;;;;;;5078743;28;20552;-69
2023/02/06 08:09:00;;;;;;;21.33;13.40;;;0.40;99.90;;;;;;5077589;28;20541;-69
2023/02/06 08:11:29;;;;;;;17.97;14.17;;;0.50;99.90;;;;;;5078069;28;20461;-67
2023/02/06 08:13:56;;;;;;;19.60;13.90;;;0.50;99.90;;;;;;5077568;28;20558;-69
2023/02/06 08:16:24;;;;;;;20.13;14.50;;;0.60;99.90;;;;;;5077695;28;20485;-69
2023/02/06 08:18:51;;;;;;;17.70;13.93;;;0.60;99.90;;;;;;5077298;28;20462;-69
2023/02/06 08:21:20;;;;;;;17.80;13.30;;;0.70;99.90;;;;;;5077724;28;20532;-68
2023/02/06 08:23:53;;;;;;;24.50;15.83;;;0.70;99.90;;;;;;5077133;28;20465;-67
2023/02/06 08:26:22;;;;;;;21.27;13.60;;;0.70;99.90;;;;;;5077671;28;20489;-69
2023/02/06 08:28:50;;;;;;;29.33;14.97;;;0.70;99.90;;;;;;5077523;28;20976;-68
2023/02/06 08:31:20;;;;;;;20.57;13.60;;;0.70;99.90;;;;;;5077892;28;20464;-69
2023/02/06 08:33:47;;;;;;;24.63;15.23;;;0.80;99.90;;;;;;5077992;28;20473;-69
2023/02/06 08:36:16;;;;;;;21.93;14.90;;;0.90;99.90;;;;;;5077672;28;20458;-68
2023/02/06 08:38:43;;;;;;;23.37;14.60;;;0.90;99.90;;;;;;5077526;28;20469;-69
2023/02/06 08:41:23;;;;;;;20.07;14.40;;;0.90;99.90;;;;;;5077387;28;21053;-68
2023/02/06 08:43:52;;;;;;;23.90;14.53;;;0.90;99.90;;;;;;5076901;28;20474;-70
2023/02/06 08:46:20;;;;;;;23.80;14.43;;;0.90;99.90;;;;;;5077183;28;20480;-70
2023/02/06 08:48:47;;;;;;;31.23;15.20;;;0.90;99.90;;;;;;5076856;28;20462;-69
2023/02/06 08:51:15;;;;;;;21.60;15.60;;;0.90;99.90;;;;;;5076823;28;20451;-69
2023/02/06 08:53:42;;;;;;;22.07;14.17;;;0.90;99.90;;;;;;5076380;28;20480;-69
2023/02/06 08:56:11;;;;;;;26.97;16.13;;;0.90;99.90;;;;;;5077110;28;20461;-69
2023/02/06 08:58:40;;;;;;;25.30;16.63;;;0.90;99.90;;;;;;5076395;28;20454;-69
2023/02/06 09:01:08;;;;;;;39.43;24.13;;;0.90;99.90;;;;;;5076917;28;20471;-69
2023/02/06 09:03:35;;;;;;;28.63;16.70;;;0.90;99.90;;;;;;5076594;28;20541;-68
2023/02/06 09:06:03;;;;;;;26.63;16.07;;;0.90;99.90;;;;;;5076452;28;20454;-69
2023/02/06 09:08:30;;;;;;;23.80;15.83;;;0.90;99.90;;;;;;5076211;28;20785;-68
2023/02/06 09:10:57;;;;;;;33.27;17.37;;;1.00;99.90;;;;;;5077451;28;20454;-69
2023/02/06 09:13:25;;;;;;;24.87;16.33;;;1.00;99.90;;;;;;5076921;28;20567;-69
2023/02/06 09:15:53;;;;;;;27.23;15.90;;;1.00;99.90;;;;;;5076563;28;20541;-68
2023/02/06 09:18:20;;;;;;;27.30;16.47;;;0.90;99.90;;;;;;5076691;28;20454;-69
2023/02/06 09:20:48;;;;;;;29.20;15.47;;;0.90;99.90;;;;;;5076347;28;20478;-68
2023/02/06 09:23:16;;;;;;;31.53;17.00;;;1.00;99.90;;;;;;5076264;28;20454;-70
2023/02/06 09:25:43;;;;;;;29.20;16.87;;;1.00;99.90;;;;;;5077128;28;20481;-68
2023/02/06 09:28:10;;;;;;;32.73;16.80;;;1.10;99.90;;;;;;5076742;28;20533;-69
2023/02/06 09:30:37;;;;;;;26.80;15.90;;;1.10;99.90;;;;;;5076637;28;20454;-69
2023/02/06 09:33:05;;;;;;;27.10;16.80;;;1.10;99.90;;;;;;5076765;28;20549;-70
2023/02/06 09:35:32;;;;;;;41.40;21.70;;;1.10;99.90;;;;;;5077005;28;20541;-69
2023/02/06 09:37:59;;;;;;;34.47;18.90;;;1.10;99.90;;;;;;5076809;28;20457;-67
2023/02/06 09:40:28;;;;;;;35.03;19.37;;;1.10;99.90;;;;;;5076495;28;20514;-68
2023/02/06 09:42:55;;;;;;;35.43;19.53;;;1.10;99.90;;;;;;5076843;28;20549;-70
2023/02/06 09:45:25;;;;;;;30.17;17.17;;;1.20;99.90;;;;;;5077241;28;20450;-69
2023/02/06 09:47:55;;;;;;;31.67;16.27;;;1.20;99.90;;;;;;5077721;28;20464;-69
2023/02/06 09:50:30;;;;;;;38.83;17.47;;;1.20;99.90;;;;;;5077588;28;20442;-69
2023/02/06 09:53:10;;;;;;;39.53;19.63;;;1.20;99.90;;;;;;5076585;28;20530;-69
2023/02/06 09:55:41;;;;;;;38.20;18.10;;;1.20;99.90;;;;;;5076996;28;20454;-69
2023/02/06 09:58:18;;;;;;;38.43;18.77;;;1.20;99.90;;;;;;5076576;28;20778;-69
2023/02/06 10:00:50;;;;;;;39.00;17.87;;;1.30;99.90;;;;;;5075812;28;20504;-70
2023/02/06 10:03:47;;;;;;;36.83;16.10;;;1.30;99.90;;;;;;5076718;28;20464;-69
2023/02/06 10:06:22;;;;;;;32.70;18.30;;;1.30;99.90;;;;;;5076394;28;20469;-69
2023/02/06 10:08:56;;;;;;;39.50;18.67;;;1.30;99.90;;;;;;5076333;28;20448;-69
2023/02/06 10:11:33;;;;;;;41.37;19.17;;;1.20;99.90;;;;;;5075774;28;20440;-69
2023/02/06 10:14:04;;;;;;;28.50;15.50;;;1.20;99.90;;;;;;5076094;28;20438;-69
2023/02/06 10:16:39;;;;;;;28.10;16.13;;;1.20;99.90;;;;;;5076221;28;20446;-69
2023/02/06 10:19:14;;;;;;;30.17;17.57;;;1.20;99.90;;;;;;5076043;28;20448;-69
2023/02/06 10:21:47;;;;;;;33.17;17.60;;;1.20;99.90;;;;;;5077906;28;20522;-69
2023/02/06 10:24:21;;;;;;;32.67;17.57;;;1.20;99.90;;;;;;5078825;28;20954;-69
2023/02/06 10:26:51;;;;;;;33.00;16.87;;;1.30;99.90;;;;;;5078953;28;20474;-71
2023/02/06 10:29:25;;;;;;;32.03;16.20;;;1.30;99.90;;;;;;5076590;28;20766;-71
2023/02/06 10:31:59;;;;;;;27.90;16.97;;;1.30;99.90;;;;;;5076455;28;20481;-70
2023/02/06 10:34:44;;;;;;;29.60;16.23;;;1.30;99.90;;;;;;5076114;28;20464;-70
2023/02/06 10:37:27;;;;;;;32.73;17.07;;;1.40;99.90;;;;;;5075832;28;20438;-69
2023/02/06 10:40:19;;;;;;;31.07;16.07;;;1.40;99.90;;;;;;5072162;28;20483;-70
2023/02/06 10:42:53;;;;;;;32.27;17.77;;;1.40;99.90;;;;;;5055691;28;20464;-70
2023/02/06 10:45:35;;;;;;;32.63;20.33;;;1.40;99.90;;;;;;5057049;28;20435;-69
2023/02/06 10:48:10;;;;;;;27.90;15.60;;;1.40;99.90;;;;;;5057107;28;20511;-70
2023/02/06 10:50:41;;;;;;;27.10;15.77;;;1.40;99.90;;;;;;5056882;28;20899;-70
2023/02/06 10:53:19;;;;;;;23.10;14.43;;;1.40;99.90;;;;;;5061055;28;20507;-71
2023/02/06 10:55:51;;;;;;;21.97;14.23;;;1.40;99.90;;;;;;5060653;28;20702;-69
2023/02/06 10:58:23;;;;;;;26.77;16.00;;;1.50;99.90;;;;;;5060456;28;20449;-70
2023/02/06 11:00:51;;;;;;;25.90;15.47;;;1.60;99.90;;;;;;5066384;28;20450;-70
2023/02/06 11:03:20;;;;;;;23.00;14.00;;;1.70;99.90;;;;;;5080187;28;20454;-70
2023/02/06 11:05:48;;;;;;;23.33;14.20;;;1.70;99.90;;;;;;5080628;28;20558;-71
2023/02/06 11:08:22;;;;;;;23.00;13.87;;;1.70;99.90;;;;;;5080737;28;20537;-69
2023/02/06 11:10:49;;;;;;;25.87;13.93;;;1.70;99.90;;;;;;5080664;28;20799;-70
2023/02/06 11:13:23;;;;;;;22.67;14.33;;;1.80;99.90;;;;;;5080034;28;20512;-69
2023/02/06 11:15:57;;;;;;;24.57;14.97;;;1.80;99.90;;;;;;5080014;28;20430;-71
2023/02/06 11:18:28;;;;;;;23.90;13.30;;;1.70;99.90;;;;;;5081250;28;20490;-70
2023/02/06 11:20:55;;;;;;;22.70;15.40;;;1.70;99.90;;;;;;5081257;28;20501;-69
2023/02/06 11:23:25;;;;;;;25.07;13.40;;;1.70;99.90;;;;;;5080627;28;20522;-69
2023/02/06 11:26:03;;;;;;;29.40;16.40;;;1.70;99.90;;;;;;5080124;28;20847;-69
2023/02/06 11:28:33;;;;;;;25.77;14.83;;;1.60;99.90;;;;;;5080919;28;20440;-68
2023/02/06 11:31:02;;;;;;;22.33;13.87;;;1.60;99.90;;;;;;5081083;28;20482;-68
2023/02/06 11:33:38;;;;;;;27.30;15.40;;;1.60;99.90;;;;;;5081271;28;20464;-69
2023/02/06 11:36:07;;;;;;;24.80;15.60;;;1.60;99.90;;;;;;5082850;28;20433;-69
2023/02/06 11:38:35;;;;;;;27.47;15.90;;;1.60;99.90;;;;;;5082593;28;20973;-69
2023/02/06 11:41:04;;;;;;;25.87;14.80;;;1.60;99.90;;;;;;5082535;28;20541;-70
2023/02/06 11:43:33;;;;;;;25.00;15.00;;;1.60;99.90;;;;;;5082983;28;20486;-69
2023/02/06 11:46:12;;;;;;;25.93;16.70;;;1.60;99.90;;;;;;5083021;28;20545;-70
2023/02/06 11:48:41;;;;;;;26.77;15.90;;;1.60;99.90;;;;;;5083834;28;20475;-70
2023/02/06 11:51:10;;;;;;;25.00;14.43;;;1.60;99.90;;;;;;5081906;28;20464;-69
2023/02/06 11:53:39;;;;;;;23.60;15.27;;;1.60;99.90;;;;;;5080742;28;20515;-69
2023/02/06 11:56:16;;;;;;;29.73;15.00;;;1.60;99.90;;;;;;5080464;28;20839;-71
2023/02/06 11:58:43;;;;;;;26.17;16.73;;;1.60;99.90;;;;;;5080463;28;20437;-70
2023/02/06 12:01:18;;;;;;;22.47;14.20;;;1.60;99.90;;;;;;5079753;28;20458;-70
2023/02/06 12:03:54;;;;;;;24.23;15.70;;;1.60;99.90;;;;;;5077887;28;20882;-69
2023/02/06 12:06:29;;;;;;;23.40;14.90;;;1.60;99.90;;;;;;5078233;28;20446;-71
2023/02/06 12:08:59;;;;;;;25.77;16.50;;;1.60;99.90;;;;;;5078199;28;20449;-70
2023/02/06 12:11:30;;;;;;;22.53;13.53;;;1.60;99.90;;;;;;5078261;28;20485;-70
2023/02/06 12:14:03;;;;;;;26.70;15.20;;;1.60;99.90;;;;;;5078032;28;20871;-69
2023/02/06 12:16:32;;;;;;;24.80;14.80;;;1.70;99.90;;;;;;5074449;28;20469;-70
2023/02/06 12:19:01;;;;;;;25.80;16.17;;;1.70;99.90;;;;;;5057327;28;20545;-69
2023/02/06 12:21:40;;;;;;;26.80;15.63;;;1.70;99.90;;;;;;5077321;28;20458;-71
2023/02/06 12:24:24;;;;;;;32.20;19.33;;;1.80;99.90;;;;;;5077705;28;20533;-70
2023/02/06 12:26:53;;;;;;;28.40;16.23;;;1.70;99.90;;;;;;5077643;28;20541;-69
2023/02/06 12:29:24;;;;;;;26.87;16.27;;;1.60;99.90;;;;;;5077217;28;20454;-69
2023/02/06 12:31:59;;;;;;;24.60;16.00;;;1.60;99.90;;;;;;5077119;28;20522;-69
2023/02/06 12:34:30;;;;;;;25.90;16.40;;;1.60;99.90;;;;;;5076709;28;20736;-70
2023/02/06 12:37:12;;;;;;;26.37;16.07;;;1.60;99.90;;;;;;5076183;28;20434;-70
2023/02/06 12:39:44;;;;;;;24.53;15.70;;;1.60;99.90;;;;;;5076416;28;20442;-69
2023/02/06 12:42:35;;;;;;;25.63;16.13;;;1.60;99.90;;;;;;5076416;28;20463;-70
2023/02/06 12:45:07;;;;;;;22.50;15.90;;;1.70;99.90;;;;;;5076807;28;20521;-69
2023/02/06 12:47:41;;;;;;;23.50;15.73;;;1.70;99.90;;;;;;5077342;28;20526;-69
2023/02/06 12:50:15;;;;;;;24.47;16.10;;;1.70;99.90;;;;;;5076999;28;20905;-69
2023/02/06 12:52:45;;;;;;;24.17;15.87;;;1.80;99.90;;;;;;5076308;28;20448;-70